createdAt,value
2019-01-11T00:00:09.395Z,23.53
2019-01-11T00:02:41.617Z,23.67
2019-01-11T00:05:12.020Z,19.53
2019-01-11T00:07:43.087Z,27.60
2019-01-11T00:10:13.569Z,19.33
2019-01-11T00:12:44.356Z,23.67
2019-01-11T00:15:14.653Z,23.13
2019-01-11T00:17:44.972Z,20.07
2019-01-11T00:20:15.435Z,28.97
2019-01-11T00:22:47.503Z,24.57
2019-01-11T00:25:17.768Z,27.20
2019-01-11T00:27:48.175Z,30.33
2019-01-11T00:30:18.533Z,23.03
2019-01-11T00:32:49.320Z,26.67
2019-01-11T00:35:19.620Z,23.60
2019-01-11T00:37:51.405Z,26.30
2019-01-11T00:40:21.701Z,25.70
2019-01-11T00:42:52.979Z,28.50
2019-01-11T00:45:23.250Z,27.73
2019-01-11T00:47:55.175Z,30.07
2019-01-11T00:50:25.496Z,29.50
2019-01-11T00:52:57.764Z,32.73
2019-01-11T00:55:28.061Z,26.00
2019-01-11T00:57:58.475Z,25.23
2019-01-11T01:00:28.918Z,25.10
2019-01-11T01:03:00.202Z,25.10
2019-01-11T01:05:30.494Z,24.40
2019-01-11T01:08:01.665Z,23.93
2019-01-11T01:10:32.957Z,22.00
2019-01-11T01:13:03.953Z,24.30
2019-01-11T01:15:34.232Z,30.50
2019-01-11T01:18:04.836Z,30.70
2019-01-11T01:20:35.212Z,28.67
2019-01-11T01:23:07.000Z,31.37
2019-01-11T01:25:37.327Z,28.57
2019-01-11T01:28:07.873Z,28.37
2019-01-11T01:30:38.153Z,26.23
2019-01-11T01:33:09.429Z,26.53
2019-01-11T01:35:39.701Z,30.77
2019-01-11T01:38:11.282Z,31.73
2019-01-11T01:40:42.607Z,32.03
2019-01-11T01:43:13.534Z,26.27
2019-01-11T01:45:44.033Z,27.83
2019-01-11T01:48:15.972Z,25.97
2019-01-11T01:50:46.270Z,26.07
2019-01-11T01:53:19.306Z,26.33
2019-01-11T01:55:49.584Z,33.03
2019-01-11T01:58:19.978Z,26.03
2019-01-11T02:00:50.280Z,30.67
2019-01-11T02:03:21.099Z,30.00
2019-01-11T02:05:51.470Z,30.00
2019-01-11T02:08:23.002Z,27.73
2019-01-11T02:10:53.285Z,25.43
2019-01-11T02:13:24.446Z,28.93
2019-01-11T02:15:54.733Z,39.80
2019-01-11T02:18:25.099Z,33.17
2019-01-11T02:20:55.606Z,35.07
2019-01-11T02:23:27.521Z,31.67
2019-01-11T02:25:57.852Z,34.43
2019-01-11T02:28:28.192Z,32.33
2019-01-11T02:30:58.490Z,35.80
2019-01-11T02:33:29.375Z,33.40
2019-01-11T02:35:59.640Z,36.77
2019-01-11T02:38:32.305Z,32.87
2019-01-11T02:41:02.848Z,38.07
2019-01-11T02:43:33.787Z,41.70
2019-01-11T02:46:04.056Z,33.43
2019-01-11T02:48:35.118Z,33.77
2019-01-11T02:51:05.406Z,33.73
2019-01-11T02:53:36.689Z,32.23
2019-01-11T02:56:07.079Z,36.30
2019-01-11T02:58:37.814Z,42.13
2019-01-11T03:01:08.124Z,34.07
2019-01-11T03:03:39.085Z,34.10
2019-01-11T03:06:09.372Z,45.73
2019-01-11T03:08:40.354Z,37.83
2019-01-11T03:11:10.644Z,40.00
2019-01-11T03:13:41.430Z,41.80
2019-01-11T03:16:11.710Z,45.23
2019-01-11T03:18:42.325Z,39.70
2019-01-11T03:21:12.598Z,39.57
2019-01-11T03:23:44.669Z,41.13
2019-01-11T03:26:15.128Z,42.60
2019-01-11T03:28:45.419Z,41.63
2019-01-11T03:31:24.892Z,40.33
2019-01-11T03:33:55.799Z,43.70
2019-01-11T03:36:26.084Z,42.07
2019-01-11T03:38:56.365Z,38.93
2019-01-11T03:41:26.743Z,47.97
2019-01-11T03:43:57.509Z,42.47
2019-01-11T03:46:27.907Z,50.53
2019-01-11T03:48:59.836Z,44.73
2019-01-11T03:51:30.232Z,39.70
2019-01-11T03:54:00.964Z,40.87
2019-01-11T03:56:31.808Z,44.20
2019-01-11T03:59:02.069Z,45.70
2019-01-11T04:01:32.473Z,41.07
2019-01-11T04:04:03.270Z,44.90
2019-01-11T04:06:33.551Z,45.63
2019-01-11T04:09:04.980Z,45.73
2019-01-11T04:11:35.243Z,41.70
2019-01-11T04:14:05.771Z,44.47
2019-01-11T04:16:36.550Z,43.00
2019-01-11T04:19:12.866Z,45.30
2019-01-11T04:21:51.363Z,44.90
2019-01-11T04:24:23.274Z,47.43
2019-01-11T04:26:54.352Z,47.53
2019-01-11T04:29:26.043Z,43.50
2019-01-11T04:31:57.458Z,44.93
2019-01-11T04:34:27.754Z,43.33
2019-01-11T04:36:58.029Z,38.73
2019-01-11T04:39:28.790Z,44.37
2019-01-11T04:41:59.663Z,37.57
2019-01-11T04:44:30.060Z,47.10
2019-01-11T04:47:02.084Z,41.30
2019-01-11T04:49:33.404Z,46.00
2019-01-11T04:52:04.339Z,39.63
2019-01-11T04:54:34.612Z,41.87
2019-01-11T04:57:05.066Z,42.33
2019-01-11T04:59:35.351Z,44.37
2019-01-11T05:02:06.798Z,41.63
2019-01-11T05:04:37.078Z,43.87
2019-01-11T05:07:07.352Z,44.13
2019-01-11T05:09:38.081Z,41.43
2019-01-11T05:12:10.333Z,47.60
2019-01-11T05:14:40.619Z,42.53
2019-01-11T05:17:10.924Z,43.33
2019-01-11T05:19:41.739Z,38.60
2019-01-11T05:22:12.601Z,41.97
2019-01-11T05:24:43.086Z,41.87
2019-01-11T05:27:13.435Z,49.70
2019-01-11T05:29:43.713Z,41.13
2019-01-11T05:32:15.034Z,39.40
2019-01-11T05:34:45.849Z,41.73
2019-01-11T05:37:17.069Z,41.70
2019-01-11T05:39:47.420Z,34.40
2019-01-11T05:42:17.712Z,40.73
2019-01-11T05:44:47.989Z,37.73
2019-01-11T05:47:18.808Z,39.60
2019-01-11T05:49:49.747Z,36.93
2019-01-11T05:52:20.112Z,38.97
2019-01-11T05:54:50.406Z,36.53
2019-01-11T05:57:21.279Z,39.43
2019-01-11T05:59:52.738Z,38.13
2019-01-11T06:02:23.058Z,42.87
2019-01-11T06:05:05.634Z,33.97
2019-01-11T06:07:43.947Z,37.17
2019-01-11T06:10:16.372Z,34.30
2019-01-11T06:12:46.681Z,34.40
2019-01-11T06:15:17.076Z,37.67
2019-01-11T06:17:47.440Z,33.57
2019-01-11T06:20:19.856Z,39.73
2019-01-11T06:22:50.162Z,30.60
2019-01-11T06:25:20.452Z,35.90
2019-01-11T06:27:50.772Z,34.67
2019-01-11T06:30:21.543Z,35.87
2019-01-11T06:32:51.861Z,36.93
2019-01-11T06:35:22.167Z,35.50
2019-01-11T06:37:52.467Z,35.83
2019-01-11T06:40:23.142Z,37.93
2019-01-11T06:42:53.938Z,37.57
2019-01-11T06:45:24.218Z,36.47
2019-01-11T06:47:54.528Z,36.10
2019-01-11T06:50:25.581Z,33.83
2019-01-11T06:52:55.976Z,36.10
2019-01-11T06:55:26.875Z,36.63
2019-01-11T06:57:57.282Z,34.27
2019-01-11T07:00:27.671Z,32.67
2019-01-11T07:02:57.984Z,29.03
2019-01-11T07:05:28.787Z,32.30
2019-01-11T07:07:59.059Z,35.80
2019-01-11T07:10:29.693Z,31.50
2019-01-11T07:12:59.981Z,31.07
2019-01-11T07:15:32.083Z,30.33
2019-01-11T07:18:02.392Z,30.13
2019-01-11T07:20:32.823Z,29.33
2019-01-11T07:23:03.126Z,33.70
2019-01-11T07:25:34.003Z,31.27
2019-01-11T07:28:04.330Z,30.87
2019-01-11T07:30:50.103Z,31.70
2019-01-11T07:33:22.031Z,32.67
2019-01-11T07:35:56.506Z,33.57
2019-01-11T07:38:26.814Z,32.50
2019-01-11T07:40:57.157Z,33.10
2019-01-11T07:43:27.523Z,30.77
2019-01-11T07:45:58.408Z,31.37
2019-01-11T07:48:28.705Z,29.17
2019-01-11T07:51:01.214Z,29.13
2019-01-11T07:53:31.532Z,27.63
2019-01-11T07:56:02.681Z,28.27
2019-01-11T07:58:32.958Z,30.83
2019-01-11T08:01:03.347Z,28.83
2019-01-11T08:03:33.748Z,24.97
2019-01-11T08:06:06.130Z,25.97
2019-01-11T08:08:36.411Z,25.30
2019-01-11T08:11:06.802Z,24.90
2019-01-11T08:13:37.109Z,27.50
2019-01-11T08:16:08.358Z,27.97
2019-01-11T08:18:38.765Z,27.50
2019-01-11T08:21:09.598Z,28.50
2019-01-11T08:23:39.904Z,31.03
2019-01-11T08:26:11.433Z,28.37
2019-01-11T08:28:41.705Z,28.47
2019-01-11T08:31:12.034Z,30.40
2019-01-11T08:33:42.336Z,26.90
2019-01-11T08:36:14.669Z,26.47
2019-01-11T08:38:44.955Z,26.43
2019-01-11T08:41:15.340Z,24.43
2019-01-11T08:43:45.650Z,26.40
2019-01-11T08:46:16.879Z,28.10
2019-01-11T08:48:47.173Z,25.87
2019-01-11T08:51:19.880Z,24.17
2019-01-11T08:53:50.312Z,24.97
2019-01-11T08:56:21.196Z,27.13
2019-01-11T08:58:51.510Z,24.93
2019-01-11T09:01:21.871Z,26.57
2019-01-11T09:03:52.333Z,29.47
2019-01-11T09:06:24.741Z,27.37
2019-01-11T09:08:55.031Z,25.87
2019-01-11T09:11:25.774Z,27.30
2019-01-11T09:13:56.093Z,27.20
2019-01-11T09:16:26.941Z,32.90
2019-01-11T09:18:59.768Z,66.70
2019-01-11T09:21:31.095Z,33.03
2019-01-11T09:24:01.444Z,27.60
2019-01-11T09:26:32.263Z,27.17
2019-01-11T09:29:02.946Z,26.37
2019-01-11T09:31:33.596Z,27.90
2019-01-11T09:34:03.878Z,26.73
2019-01-11T09:36:35.690Z,27.43
2019-01-11T09:39:09.287Z,27.70
2019-01-11T09:41:39.632Z,25.43
2019-01-11T09:44:09.939Z,27.63
2019-01-11T09:46:40.799Z,26.30
2019-01-11T09:49:11.084Z,27.73
2019-01-11T09:51:44.097Z,28.07
2019-01-11T09:54:14.389Z,29.20
2019-01-11T09:56:45.298Z,27.57
2019-01-11T09:59:15.579Z,27.47
2019-01-11T10:01:47.545Z,27.47
2019-01-11T10:04:23.073Z,27.97
2019-01-11T10:07:05.827Z,27.87
2019-01-11T10:09:38.434Z,28.47
2019-01-11T10:12:09.057Z,24.90
2019-01-11T10:14:39.328Z,27.33
2019-01-11T10:17:09.623Z,30.10
2019-01-11T10:19:40.507Z,31.40
2019-01-11T10:22:10.812Z,30.43
2019-01-11T10:24:42.289Z,29.47
2019-01-11T10:27:12.611Z,30.10
2019-01-11T10:29:43.490Z,27.50
2019-01-11T10:32:13.829Z,27.07
2019-01-11T10:34:44.159Z,28.03
2019-01-11T10:37:14.469Z,31.23
2019-01-11T10:39:44.728Z,27.47
2019-01-11T10:42:16.104Z,28.17
2019-01-11T10:44:46.411Z,27.20
2019-01-11T10:47:16.813Z,28.10
2019-01-11T10:49:48.082Z,31.67
2019-01-11T10:52:20.478Z,25.10
2019-01-11T10:54:50.758Z,28.57
2019-01-11T10:57:21.646Z,26.87
2019-01-11T10:59:51.974Z,28.07
2019-01-11T11:02:22.727Z,29.83
2019-01-11T11:04:53.018Z,33.60
2019-01-11T11:07:23.408Z,34.60
2019-01-11T11:09:53.686Z,32.60
2019-01-11T11:12:25.519Z,34.50
2019-01-11T11:14:55.899Z,35.90
2019-01-11T11:17:26.287Z,32.70
2019-01-11T11:19:56.566Z,39.07
2019-01-11T11:22:27.882Z,35.43
2019-01-11T11:24:58.203Z,34.90
2019-01-11T11:27:28.533Z,41.10
2019-01-11T11:29:59.373Z,38.07
2019-01-11T11:32:47.780Z,43.43
2019-01-11T11:35:18.450Z,47.53
2019-01-11T11:37:48.735Z,45.90
2019-01-11T11:40:19.139Z,40.43
2019-01-11T11:42:49.553Z,44.10
2019-01-11T11:45:20.466Z,42.13
2019-01-11T11:47:50.747Z,47.90
2019-01-11T11:50:21.713Z,41.73
2019-01-11T11:52:52.648Z,43.60
2019-01-11T11:55:23.965Z,44.93
2019-01-11T11:57:54.759Z,42.17
2019-01-11T12:00:27.830Z,44.17
2019-01-11T12:02:58.136Z,46.87
2019-01-11T12:05:28.426Z,42.93
2019-01-11T12:07:59.591Z,42.67
2019-01-11T12:10:30.928Z,44.43
2019-01-11T12:13:01.756Z,44.43
2019-01-11T12:15:32.099Z,45.07
2019-01-11T12:18:02.397Z,48.23
2019-01-11T12:20:33.635Z,44.10
2019-01-11T12:23:04.577Z,54.80
2019-01-11T12:25:36.354Z,51.27
2019-01-11T12:28:07.028Z,54.40
2019-01-11T12:30:37.415Z,48.03
2019-01-11T12:33:08.238Z,48.03
2019-01-11T12:35:38.581Z,50.53
2019-01-11T12:38:13.668Z,52.57
2019-01-11T12:40:40.928Z,52.10
2019-01-11T12:43:11.251Z,56.23
2019-01-11T12:45:44.451Z,51.77
2019-01-11T12:48:14.819Z,47.77
2019-01-11T12:50:45.160Z,49.50
2019-01-11T12:53:16.830Z,50.47
2019-01-11T12:55:47.671Z,61.57
2019-01-11T12:58:18.704Z,116.90
2019-01-11T13:00:49.275Z,55.90
2019-01-11T13:03:19.629Z,52.20
2019-01-11T13:05:50.119Z,50.03
2019-01-11T13:08:20.896Z,53.70
2019-01-11T13:10:51.550Z,47.40
2019-01-11T13:13:21.973Z,48.87
2019-01-11T13:15:52.342Z,48.40
2019-01-11T13:18:22.653Z,48.67
2019-01-11T13:20:52.988Z,48.70
2019-01-11T13:23:23.909Z,54.93
2019-01-11T13:25:54.353Z,51.90
2019-01-11T13:28:24.661Z,57.27
2019-01-11T13:30:54.952Z,53.93
2019-01-11T13:33:25.321Z,57.40
2019-01-11T13:35:56.940Z,61.50
2019-01-11T13:38:27.764Z,56.07
2019-01-11T13:40:58.054Z,51.77
2019-01-11T13:43:28.364Z,55.53
2019-01-11T13:45:59.645Z,52.23
2019-01-11T13:48:29.913Z,52.77
2019-01-11T13:51:01.863Z,51.47
2019-01-11T13:53:33.900Z,49.57
2019-01-11T13:56:04.292Z,49.57
2019-01-11T13:58:34.596Z,46.07
2019-01-11T14:01:05.507Z,49.87
2019-01-11T14:03:36.390Z,48.83
2019-01-11T14:06:07.809Z,52.23
2019-01-11T14:08:38.110Z,43.90
2019-01-11T14:11:08.540Z,47.80
2019-01-11T14:13:39.418Z,48.97
2019-01-11T14:16:09.800Z,45.90
2019-01-11T14:18:40.154Z,41.27
2019-01-11T14:21:10.443Z,41.60
2019-01-11T14:23:41.832Z,39.20
2019-01-11T14:26:12.157Z,41.97
2019-01-11T14:28:42.454Z,38.00
2019-01-11T14:31:12.880Z,39.73
2019-01-11T14:33:43.722Z,32.03
2019-01-11T14:36:14.053Z,35.27
2019-01-11T14:38:44.341Z,32.53
2019-01-11T14:41:15.890Z,37.20
2019-01-11T14:43:46.874Z,33.87
2019-01-11T14:46:17.242Z,33.17
2019-01-11T14:48:47.548Z,38.33
2019-01-11T14:51:18.030Z,29.77
2019-01-11T14:53:49.735Z,33.77
2019-01-11T14:56:21.331Z,32.00
2019-01-11T14:58:51.642Z,34.47
2019-01-11T15:01:22.270Z,30.23
2019-01-11T15:03:53.107Z,32.23
2019-01-11T15:06:24.439Z,32.37
2019-01-11T15:08:54.732Z,35.10
2019-01-11T15:11:25.100Z,33.40
2019-01-11T15:13:56.337Z,32.33
2019-01-11T15:16:26.928Z,32.63
2019-01-11T15:18:57.243Z,35.87
2019-01-11T15:21:27.525Z,31.03
2019-01-11T15:23:58.376Z,35.63
2019-01-11T15:26:28.681Z,33.57
2019-01-11T15:29:00.722Z,38.47
2019-01-11T15:31:31.299Z,37.17
2019-01-11T15:34:02.154Z,35.50
2019-01-11T15:36:32.436Z,35.17
2019-01-11T15:39:02.771Z,35.47
2019-01-11T15:41:33.481Z,34.23
2019-01-11T15:44:04.201Z,39.03
2019-01-11T15:46:35.777Z,32.20
2019-01-11T15:49:06.221Z,33.77
2019-01-11T15:51:36.502Z,41.20
2019-01-11T15:54:08.116Z,40.57
2019-01-11T15:56:38.917Z,40.47
2019-01-11T15:59:09.206Z,31.60
2019-01-11T16:01:40.393Z,36.97
2019-01-11T16:04:10.846Z,33.47
2019-01-11T16:06:43.263Z,36.17
2019-01-11T16:10:00.527Z,29.67
2019-01-11T16:12:39.682Z,25.87
2019-01-11T16:15:41.433Z,27.13
2019-01-11T16:18:24.930Z,26.10
2019-01-11T16:20:57.045Z,30.03
2019-01-11T16:23:27.361Z,25.73
2019-01-11T16:25:57.667Z,32.27
2019-01-11T16:28:28.069Z,25.57
2019-01-11T16:30:58.856Z,29.07
2019-01-11T16:33:29.181Z,23.63
2019-01-11T16:35:59.483Z,27.07
2019-01-11T16:38:31.167Z,26.20
2019-01-11T16:41:01.905Z,26.60
2019-01-11T16:43:32.232Z,24.90
2019-01-11T16:46:02.698Z,24.07
2019-01-11T16:48:33.876Z,23.60
2019-01-11T16:51:05.631Z,27.03
2019-01-11T16:53:37.446Z,25.53
2019-01-11T16:56:09.902Z,23.17
2019-01-11T16:58:40.298Z,25.20
2019-01-11T17:01:10.630Z,22.33
2019-01-11T17:03:40.957Z,22.37
2019-01-11T17:06:11.719Z,24.70
2019-01-11T17:08:42.674Z,23.50
2019-01-11T17:11:13.007Z,19.33
2019-01-11T17:13:43.304Z,18.93
2019-01-11T17:16:13.860Z,19.23
2019-01-11T17:18:44.674Z,20.70
2019-01-11T17:21:15.102Z,17.00
2019-01-11T17:23:45.949Z,15.67
2019-01-11T17:26:16.522Z,18.03
2019-01-11T17:28:46.766Z,15.57
2019-01-11T17:31:17.101Z,19.83
2019-01-11T17:33:47.967Z,22.03
2019-01-11T17:36:18.262Z,20.33
2019-01-11T17:38:49.253Z,21.03
2019-01-11T17:41:19.560Z,20.90
2019-01-11T17:43:49.964Z,20.90
2019-01-11T17:46:20.338Z,16.83
2019-01-11T17:48:51.054Z,18.63
2019-01-11T17:51:21.346Z,19.33
2019-01-11T17:53:53.028Z,18.77
2019-01-11T17:56:24.883Z,23.17
2019-01-11T17:58:55.613Z,20.73
2019-01-11T18:01:26.385Z,23.60
2019-01-11T18:03:56.732Z,22.57
2019-01-11T18:06:27.049Z,20.63
2019-01-11T18:08:58.402Z,16.27
2019-01-11T18:11:29.378Z,19.07
2019-01-11T18:13:59.775Z,26.57
2019-01-11T18:16:30.163Z,22.53
2019-01-11T18:19:00.478Z,23.03
2019-01-11T18:21:31.428Z,21.43
2019-01-11T18:24:01.747Z,26.57
2019-01-11T18:26:33.521Z,25.10
2019-01-11T18:29:04.009Z,19.07
2019-01-11T18:31:34.905Z,20.33
2019-01-11T18:34:05.421Z,22.50
2019-01-11T18:36:35.864Z,20.47
2019-01-11T18:39:08.904Z,19.80
2019-01-11T18:41:40.798Z,23.03
2019-01-11T18:44:11.098Z,18.03
2019-01-11T18:46:41.431Z,20.77
2019-01-11T18:49:11.715Z,20.50
2019-01-11T18:51:42.630Z,23.17
2019-01-11T18:54:12.911Z,22.43
2019-01-11T18:56:44.512Z,32.73
2019-01-11T18:59:14.797Z,22.20
2019-01-11T19:01:45.677Z,23.00
2019-01-11T19:04:16.082Z,20.90
2019-01-11T19:06:46.403Z,19.67
2019-01-11T19:09:16.774Z,22.00
2019-01-11T19:11:48.190Z,24.13
2019-01-11T19:14:18.506Z,22.17
2019-01-11T19:16:48.963Z,25.40
2019-01-11T19:19:19.238Z,25.47
2019-01-11T19:21:50.130Z,23.40
2019-01-11T19:24:20.454Z,22.73
2019-01-11T19:26:51.681Z,25.33
2019-01-11T19:29:22.048Z,25.73
2019-01-11T19:31:52.846Z,24.80
2019-01-11T19:34:23.143Z,25.97
2019-01-11T19:36:53.444Z,25.50
2019-01-11T19:39:23.781Z,26.87
2019-01-11T19:41:54.537Z,24.90
2019-01-11T19:44:25.700Z,23.37
2019-01-11T19:46:56.002Z,26.43
2019-01-11T19:49:26.307Z,23.37
2019-01-11T19:51:57.091Z,24.93
2019-01-11T19:54:27.508Z,26.90
2019-01-11T19:56:59.154Z,26.90
2019-01-11T19:59:31.159Z,22.20
2019-01-11T20:02:01.993Z,24.60
2019-01-11T20:04:32.323Z,24.83
2019-01-11T20:07:02.629Z,22.63
2019-01-11T20:09:33.162Z,26.57
2019-01-11T20:12:04.042Z,25.80
2019-01-11T20:14:38.124Z,23.57
2019-01-11T20:17:13.997Z,23.20
2019-01-11T20:19:40.528Z,26.73
2019-01-11T20:22:11.471Z,27.40
2019-01-11T20:24:43.387Z,24.30
2019-01-11T20:27:13.697Z,28.40
2019-01-11T20:29:45.094Z,24.40
2019-01-11T20:32:15.900Z,25.93
2019-01-11T20:34:46.358Z,22.50
2019-01-11T20:37:31.210Z,21.30
2019-01-11T20:40:01.558Z,23.90
2019-01-11T20:42:32.385Z,24.57
2019-01-11T20:45:02.687Z,21.83
2019-01-11T20:47:33.517Z,23.67
2019-01-11T20:50:04.013Z,21.33
2019-01-11T20:52:34.305Z,22.80
2019-01-11T20:55:05.270Z,20.90
2019-01-11T20:57:38.337Z,21.60
2019-01-11T21:00:17.778Z,24.97
2019-01-11T21:02:48.204Z,18.20
2019-01-11T21:05:19.659Z,23.33
2019-01-11T21:07:50.605Z,20.43
2019-01-11T21:10:21.322Z,20.33
2019-01-11T21:12:51.656Z,20.10
2019-01-11T21:15:22.267Z,22.97
2019-01-11T21:17:53.046Z,24.07
2019-01-11T21:20:23.512Z,26.40
2019-01-11T21:22:55.521Z,26.20
2019-01-11T21:25:25.906Z,23.50
2019-01-11T21:27:56.749Z,23.67
2019-01-11T21:30:31.281Z,26.97
2019-01-11T21:33:01.775Z,26.17
2019-01-11T21:35:32.171Z,26.03
2019-01-11T21:38:03.778Z,22.50
2019-01-11T21:40:34.082Z,24.77
2019-01-11T21:43:04.881Z,25.50
2019-01-11T21:45:35.214Z,25.17
2019-01-11T21:48:06.213Z,26.53
2019-01-11T21:50:36.685Z,28.47
2019-01-11T21:53:08.137Z,23.70
2019-01-11T21:55:38.405Z,22.60
2019-01-11T21:58:09.918Z,30.23
2019-01-11T22:00:42.491Z,25.03
2019-01-11T22:03:23.407Z,24.93
2019-01-11T22:05:53.702Z,24.83
2019-01-11T22:08:25.150Z,26.07
2019-01-11T22:10:55.470Z,26.07
2019-01-11T22:13:25.860Z,24.97
2019-01-11T22:15:56.159Z,29.80
2019-01-11T22:18:27.035Z,28.87
2019-01-11T22:20:57.563Z,24.33
2019-01-11T22:23:28.369Z,29.53
2019-01-11T22:25:58.659Z,24.57
2019-01-11T22:28:29.602Z,27.03
2019-01-11T22:30:59.918Z,28.20
2019-01-11T22:33:30.317Z,28.63
2019-01-11T22:36:00.675Z,25.40
2019-01-11T22:38:32.623Z,23.57
2019-01-11T22:41:02.987Z,27.43
2019-01-11T22:43:33.391Z,29.63
2019-01-11T22:46:03.673Z,30.50
2019-01-11T22:48:34.709Z,27.93
2019-01-11T22:51:05.041Z,27.43
2019-01-11T22:53:36.611Z,23.87
2019-01-11T22:56:06.901Z,24.53
2019-01-11T22:58:39.107Z,26.70
2019-01-11T23:01:41.693Z,24.73
2019-01-11T23:04:11.998Z,27.40
2019-01-11T23:06:59.965Z,26.67
2019-01-11T23:09:38.405Z,27.40
2019-01-11T23:12:36.692Z,28.60
2019-01-11T23:15:13.190Z,21.83
2019-01-11T23:17:47.449Z,25.77
2019-01-11T23:20:17.879Z,25.00
2019-01-11T23:22:48.617Z,27.43
2019-01-11T23:25:19.989Z,22.90
2019-01-11T23:27:50.282Z,23.33
2019-01-11T23:30:20.559Z,27.07
2019-01-11T23:32:51.556Z,19.47
2019-01-11T23:35:21.838Z,23.20
2019-01-11T23:37:52.232Z,21.40
2019-01-11T23:40:22.555Z,22.13
2019-01-11T23:42:53.576Z,20.33
2019-01-11T23:45:23.996Z,25.53
2019-01-11T23:47:55.713Z,25.37
2019-01-11T23:50:26.133Z,22.77
2019-01-11T23:52:56.445Z,19.30
2019-01-11T23:55:27.255Z,22.23
2019-01-11T23:57:58.937Z,27.40
